Date,TemperatureHighF,TemperatureAvgF,TemperatureLowF,DewpointHighF,DewpointAvgF,DewpointLowF,HumidityHigh,HumidityAvg,HumidityLow,PressureMaxIn,PressureMinIn,WindSpeedMaxMPH,WindSpeedAvgMPH,GustSpeedMaxMPH,PrecipitationSumIn
2013-2-1,38,24,12,18,11,7,81,61,39,0.00,40.00,17,10,24,0.00
2013-2-2,54,38,25,34,26,16,96,66,37,0.00,40.00,15,9,20,0.00
2013-2-3,56,41,23,30,24,19,85,55,27,0.00,40.00,18,9,28,0.00
2013-2-4,53,41,30,30,27,24,85,60,38,0.00,40.00,14,8,19,0.00
2013-2-5,63,43,24,31,24,20,89,56,22,0.00,40.00,11,7,18,0.00
2013-2-6,61,47,33,52,39,24,97,75,58,0.00,40.00,21,11,30,0.00
2013-2-7,55,47,33,53,38,25,100,74,34,0.00,40.00,18,11,28,0.11
2013-2-8,47,34,20,34,28,19,97,78,50,0.00,40.00,14,7,20,0.11
2013-2-9,46,39,32,41,35,29,100,85,73,0.00,40.00,21,15,30,0.00
2013-2-10,45,40,31,45,28,18,100,63,43,0.00,40.00,30,20,43,0.00
2013-2-11,46,32,21,22,18,13,87,59,29,0.00,40.00,12,7,18,0.00
2013-2-12,43,34,28,29,22,16,95,64,42,0.00,40.00,9,4,13,0.00
2013-2-13,58,37,21,25,19,13,94,56,18,0.00,40.00,17,10,26,0.00
2013-2-14,47,36,29,36,25,14,85,65,48,0.00,40.00,17,10,31,0.00
2013-2-15,40,28,14,20,15,8,86,61,39,0.00,40.00,14,8,27,0.00
2013-2-16,59,34,12,26,16,6,81,54,26,0.00,40.00,20,8,28,0.00
2013-2-17,70,48,25,32,23,19,80,46,14,0.00,40.00,20,11,27,0.00
2013-2-18,51,43,26,30,22,14,67,44,28,0.00,40.00,30,17,41,0.00
2013-2-19,44,30,16,19,13,8,79,53,30,0.00,40.00,14,8,20,0.00
2013-2-20,29,26,22,27,17,3,96,74,33,0.00,40.00,16,14,24,0.00
2013-2-21,23,20,12,21,18,8,93,91,87,0.00,40.00,16,13,24,0.00
2013-2-22,22,13,5,19,9,1,89,86,81,0.00,40.00,15,9,20,0.02
2013-2-23,36,20,1,32,17,-4,93,86,80,0.00,40.00,11,7,14,0.02
2013-2-24,40,30,19,30,24,16,88,78,63,0.00,40.00,12,9,21,0.00
2013-2-25,33,31,29,32,30,26,100,95,83,0.00,40.00,22,17,38,0.13
2013-2-26,32,27,20,28,22,17,95,83,69,0.00,40.00,17,12,23,0.13
2013-2-27,36,29,23,27,23,18,90,77,62,0.00,40.00,22,14,29,0.00
2013-2-28,35,28,20,26,22,17,95,80,69,0.00,40.00,15,10,21,0.00